createdAt,value
2018-07-25T00:00:14.242Z,100763.00
2018-07-25T00:05:07.509Z,100765.00
2018-07-25T00:10:00.764Z,100769.00
2018-07-25T00:14:54.195Z,100768.00
2018-07-25T00:19:47.420Z,100765.00
2018-07-25T00:24:40.649Z,100769.00
2018-07-25T00:29:33.859Z,100769.00
2018-07-25T00:34:27.117Z,100765.00
2018-07-25T00:39:20.352Z,100765.00
2018-07-25T00:44:13.533Z,100766.00
2018-07-25T00:49:06.677Z,100765.00
2018-07-25T00:54:00.021Z,100768.00
2018-07-25T00:58:53.287Z,100773.00
2018-07-25T01:03:46.549Z,100770.00
2018-07-25T01:08:39.797Z,100773.00
2018-07-25T01:13:32.973Z,100772.00
2018-07-25T01:18:26.096Z,100778.00
2018-07-25T01:23:19.323Z,100779.00
2018-07-25T01:28:12.463Z,100780.00
2018-07-25T01:33:06.661Z,100784.00
2018-07-25T01:37:59.910Z,100783.00
2018-07-25T01:42:53.166Z,100787.00
2018-07-25T01:47:46.379Z,100779.00
2018-07-25T01:52:39.584Z,100789.00
2018-07-25T01:57:32.812Z,100791.00
2018-07-25T02:02:26.040Z,100793.00
2018-07-25T02:07:19.156Z,100795.00
2018-07-25T02:12:12.437Z,100797.00
2018-07-25T02:17:05.757Z,100805.00
2018-07-25T02:21:58.865Z,100806.00
2018-07-25T02:26:52.102Z,100807.00
2018-07-25T02:31:45.902Z,100807.00
2018-07-25T02:36:39.021Z,100811.00
2018-07-25T02:41:32.361Z,100816.00
2018-07-25T02:46:25.569Z,100824.00
2018-07-25T02:51:18.769Z,100825.00
2018-07-25T02:56:12.012Z,100829.00
2018-07-25T03:01:05.305Z,100828.00
2018-07-25T03:05:58.613Z,100835.00
2018-07-25T03:10:51.843Z,100839.00
2018-07-25T03:15:45.096Z,100843.00
2018-07-25T03:20:38.423Z,100835.00
2018-07-25T03:25:31.617Z,100838.00
2018-07-25T03:30:24.905Z,100839.00
2018-07-25T03:35:18.107Z,100838.00
2018-07-25T03:40:11.363Z,100848.00
2018-07-25T03:45:04.649Z,100845.00
2018-07-25T03:49:57.869Z,100843.00
2018-07-25T03:54:51.106Z,100852.00
2018-07-25T03:59:44.317Z,100850.00
2018-07-25T04:04:37.566Z,100858.00
2018-07-25T04:09:30.880Z,100855.00
2018-07-25T04:14:24.003Z,100859.00
2018-07-25T04:19:17.204Z,100855.00
2018-07-25T04:24:10.525Z,100857.00
2018-07-25T04:29:03.849Z,100863.00
2018-07-25T04:33:57.053Z,100864.00
2018-07-25T04:38:50.321Z,100868.00
2018-07-25T04:43:43.530Z,100870.00
2018-07-25T04:48:36.762Z,100871.00
2018-07-25T04:53:29.936Z,100882.00
2018-07-25T04:58:23.163Z,100884.00
2018-07-25T05:03:16.391Z,100887.00
2018-07-25T05:08:09.584Z,100895.00
2018-07-25T05:13:02.998Z,100888.00
2018-07-25T05:17:56.475Z,100885.00
2018-07-25T05:22:49.608Z,100892.00
2018-07-25T05:27:42.789Z,100888.00
2018-07-25T05:32:36.224Z,100891.00
2018-07-25T05:37:29.473Z,100899.00
2018-07-25T05:42:22.699Z,100903.00
2018-07-25T05:47:15.816Z,100904.00
2018-07-25T05:52:09.087Z,100903.00
2018-07-25T05:57:02.339Z,100913.00
2018-07-25T06:01:55.612Z,100909.00
2018-07-25T06:06:48.857Z,100908.00
2018-07-25T06:11:42.125Z,100919.00
2018-07-25T06:16:35.425Z,100921.00
2018-07-25T06:21:28.556Z,100928.00
2018-07-25T06:26:21.746Z,100927.00
2018-07-25T06:31:15.011Z,100937.00
2018-07-25T06:36:08.211Z,100934.00
2018-07-25T06:41:01.327Z,100928.00
2018-07-25T06:45:54.625Z,100942.00
2018-07-25T06:50:47.905Z,100935.00
2018-07-25T06:55:41.072Z,100939.00
2018-07-25T07:00:34.291Z,100934.00
2018-07-25T07:05:27.541Z,100937.00
2018-07-25T07:10:20.815Z,100956.00
2018-07-25T07:15:14.066Z,100950.00
2018-07-25T07:20:07.393Z,100946.00
2018-07-25T07:25:00.513Z,100935.00
2018-07-25T07:29:53.747Z,100943.00
2018-07-25T07:34:46.951Z,100936.00
2018-07-25T07:39:40.211Z,100947.00
2018-07-25T07:44:33.427Z,100945.00
2018-07-25T07:49:26.681Z,100939.00
2018-07-25T07:54:19.937Z,100941.00
2018-07-25T07:59:13.119Z,100943.00
2018-07-25T08:04:06.615Z,100940.00
2018-07-25T08:08:59.863Z,100950.00
2018-07-25T08:13:53.091Z,100950.00
2018-07-25T08:18:46.311Z,100948.00
2018-07-25T08:23:39.853Z,100949.00
2018-07-25T08:28:33.058Z,100944.00
2018-07-25T08:33:26.267Z,100948.00
2018-07-25T08:38:41.926Z,100944.00
2018-07-25T08:43:36.601Z,100937.00
2018-07-25T08:48:29.888Z,100934.00
2018-07-25T08:53:23.011Z,100932.00
2018-07-25T08:58:16.210Z,100942.00
2018-07-25T09:03:09.441Z,100934.00
2018-07-25T09:08:02.639Z,100933.00
2018-07-25T09:12:55.928Z,100938.00
2018-07-25T09:17:49.164Z,100924.00
2018-07-25T09:22:42.365Z,100933.00
2018-07-25T09:27:35.608Z,100926.00
2018-07-25T09:32:28.841Z,100927.00
2018-07-25T09:37:21.994Z,100927.00
2018-07-25T09:42:15.243Z,100934.00
2018-07-25T09:47:08.577Z,100932.00
2018-07-25T09:52:01.769Z,100927.00
2018-07-25T09:56:54.986Z,100918.00
2018-07-25T10:01:55.000Z,100928.00
2018-07-25T10:06:48.192Z,100921.00
2018-07-25T10:11:41.438Z,100914.00
2018-07-25T10:16:34.685Z,100909.00
2018-07-25T10:21:27.920Z,100907.00
2018-07-25T10:26:21.194Z,100908.00
2018-07-25T10:31:14.462Z,100911.00
2018-07-25T10:36:07.651Z,100905.00
2018-07-25T10:41:01.444Z,100907.00
2018-07-25T10:45:54.631Z,100897.00
2018-07-25T10:50:47.853Z,100898.00
2018-07-25T10:55:41.061Z,100894.00
2018-07-25T11:00:34.219Z,100893.00
2018-07-25T11:05:27.477Z,100884.00
2018-07-25T11:10:20.709Z,100887.00
2018-07-25T11:15:13.937Z,100876.00
2018-07-25T11:20:07.299Z,100874.00
2018-07-25T11:25:00.614Z,100864.00
2018-07-25T11:29:53.885Z,100874.00
2018-07-25T11:34:47.091Z,100872.00
2018-07-25T11:39:40.336Z,100861.00
2018-07-25T11:44:33.714Z,100859.00
2018-07-25T11:49:27.904Z,100860.00
2018-07-25T11:54:21.242Z,100852.00
2018-07-25T11:59:19.665Z,100860.00
2018-07-25T12:04:15.807Z,100852.00
2018-07-25T12:09:11.757Z,100848.00
2018-07-25T12:14:05.081Z,100841.00
2018-07-25T12:18:58.527Z,100832.00
2018-07-25T12:23:51.814Z,100828.00
2018-07-25T12:28:45.080Z,100834.00
2018-07-25T12:33:38.813Z,100822.00
2018-07-25T12:38:34.129Z,100817.00
2018-07-25T12:43:27.561Z,100816.00
2018-07-25T12:48:21.965Z,100815.00
2018-07-25T12:53:15.328Z,100811.00
2018-07-25T12:58:09.308Z,100809.00
2018-07-25T13:03:04.051Z,100803.00
2018-07-25T13:07:57.371Z,100801.00
2018-07-25T13:12:50.662Z,100802.00
2018-07-25T13:17:43.922Z,100800.00
2018-07-25T13:22:37.208Z,100791.00
2018-07-25T13:27:30.423Z,100798.00
2018-07-25T13:32:23.901Z,100797.00
2018-07-25T13:37:17.173Z,100799.00
2018-07-25T13:42:11.330Z,100790.00
2018-07-25T13:47:04.814Z,100787.00
2018-07-25T13:51:58.080Z,100782.00
2018-07-25T13:56:51.303Z,100784.00
2018-07-25T14:01:44.533Z,100778.00
2018-07-25T14:06:37.754Z,100779.00
2018-07-25T14:11:31.006Z,100789.00
2018-07-25T14:16:24.277Z,100795.00
2018-07-25T14:21:17.476Z,100794.00
2018-07-25T14:26:10.909Z,100800.00
2018-07-25T14:31:04.194Z,100789.00
2018-07-25T14:35:58.041Z,100797.00
2018-07-25T14:40:51.560Z,100799.00
2018-07-25T14:45:44.857Z,100791.00
2018-07-25T14:50:38.103Z,100812.00
2018-07-25T14:55:31.393Z,100792.00
2018-07-25T15:00:24.848Z,100781.00
2018-07-25T15:05:18.136Z,100784.00
2018-07-25T15:10:11.484Z,100783.00
2018-07-25T15:15:05.410Z,100774.00
2018-07-25T15:19:58.656Z,100770.00
2018-07-25T15:24:51.917Z,100774.00
2018-07-25T15:29:45.201Z,100769.00
2018-07-25T15:34:38.454Z,100764.00
2018-07-25T15:39:31.747Z,100758.00
2018-07-25T15:44:25.928Z,100758.00
2018-07-25T15:49:19.354Z,100750.00
2018-07-25T15:54:12.718Z,100750.00
2018-07-25T15:59:06.440Z,100745.00
2018-07-25T16:04:00.051Z,100745.00
2018-07-25T16:08:53.384Z,100740.00
2018-07-25T16:13:46.909Z,100735.00
2018-07-25T16:18:40.771Z,100739.00
2018-07-25T16:23:34.139Z,100722.00
2018-07-25T16:28:27.365Z,100730.00
2018-07-25T16:33:20.653Z,100725.00
2018-07-25T16:38:13.931Z,100722.00
2018-07-25T16:43:13.773Z,100723.00
2018-07-25T16:48:07.017Z,100728.00
2018-07-25T16:53:00.269Z,100727.00
2018-07-25T16:57:53.918Z,100726.00
2018-07-25T17:02:47.083Z,100727.00
2018-07-25T17:07:40.332Z,100730.00
2018-07-25T17:12:33.598Z,100735.00
2018-07-25T17:17:26.856Z,100736.00
2018-07-25T17:22:20.354Z,100742.00
2018-07-25T17:27:13.564Z,100740.00
2018-07-25T17:32:06.873Z,100744.00
2018-07-25T17:37:00.171Z,100746.00
2018-07-25T17:41:53.428Z,100751.00
2018-07-25T17:46:46.700Z,100758.00
2018-07-25T17:51:40.763Z,100767.00
2018-07-25T17:56:34.016Z,100773.00
2018-07-25T18:01:27.256Z,100779.00
2018-07-25T18:06:20.523Z,100782.00
2018-07-25T18:11:13.805Z,100785.00
2018-07-25T18:16:07.166Z,100792.00
2018-07-25T18:21:00.648Z,100798.00
2018-07-25T18:25:53.843Z,100802.00
2018-07-25T18:30:47.132Z,100814.00
2018-07-25T18:35:40.451Z,100830.00
2018-07-25T18:40:33.663Z,100833.00
2018-07-25T18:45:26.945Z,100835.00
2018-07-25T18:50:20.167Z,100846.00
2018-07-25T18:55:13.401Z,100855.00
2018-07-25T19:00:06.838Z,100857.00
2018-07-25T19:05:00.075Z,100868.00
2018-07-25T19:09:53.295Z,100871.00
2018-07-25T19:14:52.099Z,100876.00
2018-07-25T19:19:45.327Z,100878.00
2018-07-25T19:24:38.560Z,100883.00
2018-07-25T19:29:31.787Z,100884.00
2018-07-25T19:34:25.018Z,100890.00
2018-07-25T19:39:18.243Z,100893.00
2018-07-25T19:44:11.479Z,100901.00
2018-07-25T19:49:04.912Z,100904.00
2018-07-25T19:53:59.792Z,100903.00
2018-07-25T19:59:02.226Z,100905.00
2018-07-25T20:03:59.326Z,100902.00
2018-07-25T20:08:52.592Z,100895.00
2018-07-25T20:14:04.971Z,100898.00
2018-07-25T20:18:58.414Z,100892.00
2018-07-25T20:23:51.657Z,100881.00
2018-07-25T20:28:44.915Z,100872.00
2018-07-25T20:33:38.156Z,100874.00
2018-07-25T20:38:31.394Z,100875.00
2018-07-25T20:43:24.597Z,100874.00
2018-07-25T20:48:17.788Z,100878.00
2018-07-25T20:53:11.054Z,100884.00
2018-07-25T20:58:04.494Z,100878.00
2018-07-25T21:02:58.964Z,100887.00
2018-07-25T21:07:52.217Z,100903.00
2018-07-25T21:12:45.373Z,100906.00
2018-07-25T21:17:38.617Z,100914.00
2018-07-25T21:22:31.910Z,100914.00
2018-07-25T21:27:25.298Z,100914.00
2018-07-25T21:32:18.780Z,100916.00
2018-07-25T21:37:12.012Z,100920.00
2018-07-25T21:42:05.271Z,100925.00
2018-07-25T21:46:58.487Z,100935.00
2018-07-25T21:51:51.763Z,100941.00
2018-07-25T21:56:44.984Z,100939.00
2018-07-25T22:01:38.236Z,100933.00
2018-07-25T22:06:31.402Z,100935.00
2018-07-25T22:11:24.694Z,100932.00
2018-07-25T22:16:17.928Z,100929.00
2018-07-25T22:21:11.202Z,100932.00
2018-07-25T22:26:04.486Z,100929.00
2018-07-25T22:30:57.835Z,100930.00
2018-07-25T22:35:51.068Z,100939.00
2018-07-25T22:40:44.321Z,100933.00
2018-07-25T22:45:37.579Z,100932.00
2018-07-25T22:50:30.914Z,100928.00
2018-07-25T22:55:24.193Z,100924.00
2018-07-25T23:00:17.416Z,100928.00
2018-07-25T23:05:10.936Z,100919.00
2018-07-25T23:10:04.820Z,100916.00
2018-07-25T23:14:58.043Z,100916.00
2018-07-25T23:19:51.280Z,100912.00
2018-07-25T23:24:45.232Z,100910.00
2018-07-25T23:29:38.588Z,100906.00
2018-07-25T23:34:31.823Z,100909.00
2018-07-25T23:39:25.066Z,100905.00
2018-07-25T23:44:18.221Z,100903.00
2018-07-25T23:49:11.443Z,100904.00
2018-07-25T23:54:04.887Z,100904.00
2018-07-25T23:58:58.158Z,100910.00
